Time;durP1;ratioP1;P1;durP2;ratioP2;P2;SDS_P1;SDS_P2;PMS_P1;PMS_P2;Temp;Humidity;BMP_temperature;BMP_pressure;BME280_temperature;BME280_humidity;BME280_pressure;Samples;Min_cycle;Max_cycle;Signal;HPM_P1;HPM_P2
2023/11/26 00:00:49;;;;;;;20.50;7.37;;;7.80;99.90;;;;;;7278088;19;20635;-83
2023/11/26 00:03:15;;;;;;;22.80;7.33;;;7.70;99.90;;;;;;7280106;19;20532;-83
2023/11/26 00:05:41;;;;;;;21.33;7.63;;;7.70;99.90;;;;;;7279402;19;20196;-84
2023/11/26 00:08:07;;;;;;;27.63;8.93;;;7.80;99.90;;;;;;7278857;19;20193;-84
2023/11/26 00:10:34;;;;;;;33.40;8.20;;;7.80;99.90;;;;;;7279309;19;20205;-83
2023/11/26 00:13:00;;;;;;;32.27;9.33;;;7.90;99.90;;;;;;7293824;19;20185;-83
2023/11/26 00:15:25;;;;;;;25.53;8.77;;;7.80;99.90;;;;;;7294138;19;20587;-84
2023/11/26 00:17:51;;;;;;;24.17;7.90;;;7.80;99.90;;;;;;7280378;19;20188;-84
2023/11/26 00:20:17;;;;;;;21.30;7.70;;;7.70;99.90;;;;;;7281389;19;20855;-84
2023/11/26 00:22:43;;;;;;;27.97;8.10;;;7.70;99.90;;;;;;7286581;19;20196;-84
2023/11/26 00:25:08;;;;;;;24.80;9.00;;;7.60;99.90;;;;;;7284638;19;20653;-84
2023/11/26 00:27:35;;;;;;;23.90;8.80;;;7.60;99.90;;;;;;7286267;19;20222;-83
2023/11/26 00:30:01;;;;;;;21.10;8.47;;;7.50;99.90;;;;;;7293190;19;20181;-84
2023/11/26 00:32:27;;;;;;;25.30;8.60;;;7.50;99.90;;;;;;7307433;19;20188;-84
2023/11/26 00:34:53;;;;;;;25.03;8.70;;;7.40;99.90;;;;;;7285520;19;20197;-84
2023/11/26 00:37:18;;;;;;;22.07;8.87;;;7.30;99.90;;;;;;7285323;19;20196;-83
2023/11/26 00:39:45;;;;;;;25.10;8.77;;;7.20;99.90;;;;;;7284576;19;20519;-84
2023/11/26 00:42:11;;;;;;;28.63;9.50;;;7.10;99.90;;;;;;7283237;19;20217;-83
2023/11/26 00:44:38;;;;;;;23.80;8.90;;;7.20;99.90;;;;;;7283952;19;20199;-84
2023/11/26 00:47:04;;;;;;;26.00;8.63;;;7.20;99.90;;;;;;7284556;19;20190;-84
2023/11/26 00:49:31;;;;;;;29.20;9.07;;;7.00;99.90;;;;;;7302237;19;20193;-83
2023/11/26 00:51:56;;;;;;;34.37;9.73;;;7.00;99.90;;;;;;7305087;19;20268;-84
2023/11/26 00:54:22;;;;;;;24.63;9.97;;;6.90;99.90;;;;;;7283625;19;20743;-83
2023/11/26 00:56:48;;;;;;;32.17;9.97;;;7.00;99.90;;;;;;7284852;19;20541;-84
2023/11/26 00:59:13;;;;;;;23.57;9.70;;;7.00;99.90;;;;;;7285484;19;20549;-84
2023/11/26 01:01:39;;;;;;;26.53;9.40;;;7.00;99.90;;;;;;7284327;19;20198;-83
2023/11/26 01:04:05;;;;;;;31.33;9.67;;;7.00;99.90;;;;;;7281968;19;20716;-84
2023/11/26 01:06:31;;;;;;;25.33;10.23;;;7.00;99.90;;;;;;7289979;19;20185;-82
2023/11/26 01:08:57;;;;;;;21.63;10.33;;;7.10;99.90;;;;;;7305610;19;20216;-84
2023/11/26 01:11:23;;;;;;;27.70;10.77;;;7.10;99.90;;;;;;7283075;19;20261;-84
2023/11/26 01:13:48;;;;;;;28.00;10.40;;;7.10;99.90;;;;;;7284480;19;20218;-84
2023/11/26 01:16:14;;;;;;;26.40;11.10;;;7.10;99.90;;;;;;7285126;19;20207;-84
2023/11/26 01:18:40;;;;;;;30.83;11.17;;;7.00;99.90;;;;;;7284954;19;20185;-84
2023/11/26 01:21:07;;;;;;;31.47;11.80;;;7.10;99.90;;;;;;7284022;19;21014;-84
2023/11/26 01:23:32;;;;;;;31.10;11.87;;;7.10;99.90;;;;;;7283766;19;20188;-83
2023/11/26 01:25:58;;;;;;;24.83;11.77;;;7.10;99.90;;;;;;7304825;19;20213;-84
2023/11/26 01:28:25;;;;;;;30.60;12.37;;;7.10;99.90;;;;;;7285649;19;20221;-84
2023/11/26 01:30:50;;;;;;;31.77;12.43;;;7.20;99.90;;;;;;7282963;19;20182;-83
2023/11/26 01:33:18;;;;;;;34.43;12.47;;;7.30;99.90;;;;;;7281303;19;20196;-84
2023/11/26 01:35:44;;;;;;;30.70;12.50;;;7.40;99.90;;;;;;7284178;19;20193;-84
2023/11/26 01:38:09;;;;;;;29.50;12.63;;;7.40;99.90;;;;;;7283662;19;20185;-84
2023/11/26 01:40:37;;;;;;;38.23;13.40;;;7.50;99.90;;;;;;7282612;19;20198;-84
2023/11/26 01:43:03;;;;;;;31.33;13.70;;;7.40;99.90;;;;;;7287389;19;20177;-85
2023/11/26 01:45:29;;;;;;;29.33;13.77;;;7.50;99.90;;;;;;7312879;19;20189;-84
2023/11/26 01:47:56;;;;;;;29.70;13.03;;;7.60;99.90;;;;;;7287664;19;20196;-84
2023/11/26 01:50:24;;;;;;;29.57;12.87;;;7.60;99.90;;;;;;7286496;19;20189;-84
2023/11/26 01:52:50;;;;;;;33.30;13.43;;;7.60;99.90;;;;;;7282982;19;20610;-84
2023/11/26 01:55:18;;;;;;;45.10;13.73;;;7.60;99.90;;;;;;7284762;19;20255;-84
2023/11/26 01:57:46;;;;;;;31.13;13.90;;;7.60;99.90;;;;;;7283700;19;20552;-84
2023/11/26 02:00:14;;;;;;;35.73;15.00;;;7.60;99.90;;;;;;7282595;19;20200;-84
2023/11/26 02:02:41;;;;;;;36.37;14.57;;;7.60;99.90;;;;;;7282534;19;20197;-84
2023/11/26 02:05:11;;;;;;;36.20;14.27;;;7.70;99.90;;;;;;7284342;19;20561;-84
2023/11/26 02:07:41;;;;;;;36.73;14.87;;;7.70;99.90;;;;;;7284946;19;20188;-84
2023/11/26 02:10:07;;;;;;;39.13;14.77;;;7.70;99.90;;;;;;7286900;19;20192;-84
2023/11/26 02:12:33;;;;;;;34.80;13.73;;;7.70;99.90;;;;;;7285472;19;20257;-84
2023/11/26 02:14:59;;;;;;;34.47;14.73;;;7.70;99.90;;;;;;7307055;19;20192;-84
2023/11/26 02:17:25;;;;;;;34.67;14.27;;;7.70;99.90;;;;;;7286780;19;20616;-84
2023/11/26 02:19:53;;;;;;;30.07;14.40;;;7.80;99.90;;;;;;7284512;19;20193;-82
2023/11/26 02:22:19;;;;;;;31.10;14.10;;;7.80;99.90;;;;;;7284174;19;20188;-83
2023/11/26 02:24:46;;;;;;;34.83;14.27;;;7.90;99.90;;;;;;7283006;19;20217;-83
2023/11/26 02:27:12;;;;;;;38.27;14.53;;;7.80;99.90;;;;;;7281796;19;20189;-82
2023/11/26 02:29:40;;;;;;;34.73;14.10;;;7.90;99.90;;;;;;7283217;19;20224;-82
2023/11/26 02:32:07;;;;;;;34.60;14.10;;;7.90;99.90;;;;;;7281729;19;20252;-82
2023/11/26 02:34:34;;;;;;;30.90;13.93;;;7.90;99.90;;;;;;7282781;19;20195;-82
2023/11/26 02:37:00;;;;;;;27.60;14.17;;;7.80;99.90;;;;;;7301615;19;20180;-81
2023/11/26 02:39:28;;;;;;;34.47;14.00;;;7.80;99.90;;;;;;7292197;19;20202;-83
2023/11/26 02:41:58;;;;;;;35.70;13.77;;;7.80;99.90;;;;;;7282581;19;20193;-83
2023/11/26 02:44:24;;;;;;;26.43;13.40;;;7.70;99.90;;;;;;7279455;19;20192;-83
2023/11/26 02:46:51;;;;;;;28.63;13.20;;;7.70;99.90;;;;;;7280128;19;21374;-84
2023/11/26 02:49:18;;;;;;;29.23;13.67;;;7.70;99.90;;;;;;7282382;19;20228;-83
2023/11/26 02:51:45;;;;;;;29.87;13.53;;;7.70;99.90;;;;;;7281052;19;20652;-83
2023/11/26 02:54:10;;;;;;;25.10;13.23;;;7.80;99.90;;;;;;7282015;19;20276;-83
2023/11/26 02:56:36;;;;;;;27.97;13.10;;;7.90;99.90;;;;;;7281210;19;20201;-83
2023/11/26 02:59:02;;;;;;;38.87;14.80;;;7.90;99.90;;;;;;7281273;19;20590;-82
2023/11/26 03:01:29;;;;;;;32.53;14.13;;;7.90;99.90;;;;;;7302716;19;20268;-83
2023/11/26 03:03:55;;;;;;;30.57;14.03;;;8.00;99.90;;;;;;7281255;19;20189;-83
2023/11/26 03:06:26;;;;;;;32.27;14.37;;;8.10;99.90;;;;;;7279948;19;20674;-82
2023/11/26 03:08:59;;;;;;;34.07;14.20;;;8.10;99.90;;;;;;7280902;19;20223;-83
2023/11/26 03:14:14;;;;;;;30.63;14.13;;;8.20;99.90;;;;;;7179813;19;2006076;-83
2023/11/26 03:16:47;;;;;;;29.73;13.93;;;8.10;99.90;;;;;;7280847;19;20274;-83
2023/11/26 03:19:14;;;;;;;29.50;14.30;;;8.10;99.90;;;;;;7280185;19;20196;-83
2023/11/26 03:21:44;;;;;;;30.10;14.27;;;8.00;99.90;;;;;;7279301;19;20518;-83
2023/11/26 03:24:15;;;;;;;25.37;14.13;;;8.00;99.90;;;;;;7279624;19;20224;-83
2023/11/26 03:26:40;;;;;;;30.73;13.53;;;8.00;99.90;;;;;;7280952;19;20204;-82
2023/11/26 03:29:07;;;;;;;33.63;14.30;;;8.00;99.90;;;;;;7281840;19;20593;-83
2023/11/26 03:31:33;;;;;;;29.07;14.13;;;8.10;99.90;;;;;;7277857;19;20188;-82
2023/11/26 03:34:00;;;;;;;29.40;14.37;;;8.10;99.90;;;;;;7302777;19;20189;-83
2023/11/26 03:36:25;;;;;;;29.73;13.83;;;8.20;99.90;;;;;;7280339;19;20188;-83
2023/11/26 03:38:52;;;;;;;31.57;13.33;;;8.10;99.90;;;;;;7278895;19;20186;-83
2023/11/26 03:41:18;;;;;;;31.07;13.47;;;8.10;99.90;;;;;;7279390;19;20607;-82
2023/11/26 03:43:44;;;;;;;28.87;13.30;;;8.10;99.90;;;;;;7280280;19;20217;-83
2023/11/26 03:46:10;;;;;;;27.67;13.40;;;8.10;99.90;;;;;;7279079;19;20201;-83
2023/11/26 03:48:36;;;;;;;29.90;13.03;;;8.20;99.90;;;;;;7280489;19;20197;-82
2023/11/26 03:51:02;;;;;;;27.13;12.67;;;8.20;99.90;;;;;;7279738;19;20188;-82
2023/11/26 03:53:28;;;;;;;26.07;13.07;;;8.20;99.90;;;;;;7301408;19;20192;-83
2023/11/26 03:55:54;;;;;;;25.47;11.77;;;8.30;99.90;;;;;;7283822;19;20200;-83
2023/11/26 03:58:20;;;;;;;24.70;13.03;;;8.30;99.90;;;;;;7288125;19;20701;-83
2023/11/26 04:00:47;;;;;;;32.20;12.93;;;8.40;99.90;;;;;;7287468;19;20195;-83
2023/11/26 04:03:13;;;;;;;25.80;12.20;;;8.40;99.90;;;;;;7287661;19;20184;-83
2023/11/26 04:05:39;;;;;;;25.03;12.80;;;8.40;99.90;;;;;;7287116;19;20192;-83
2023/11/26 04:08:04;;;;;;;29.77;12.27;;;8.50;99.90;;;;;;7285692;19;20188;-83
2023/11/26 04:10:31;;;;;;;24.43;12.00;;;8.60;99.90;;;;;;7297824;19;20295;-83
2023/11/26 04:12:58;;;;;;;26.30;11.47;;;8.60;99.90;;;;;;7307891;19;20195;-83
2023/11/26 04:15:25;;;;;;;29.37;11.30;;;8.60;99.90;;;;;;7286698;19;20195;-82
2023/11/26 04:17:51;;;;;;;24.80;11.20;;;8.60;99.90;;;;;;7287347;19;20182;-82
2023/11/26 04:20:17;;;;;;;26.03;10.97;;;8.60;99.90;;;;;;7285930;19;20258;-83
2023/11/26 04:22:43;;;;;;;21.90;10.10;;;8.60;99.90;;;;;;7285931;19;20196;-83
2023/11/26 04:25:09;;;;;;;24.07;9.10;;;8.60;99.90;;;;;;7287533;19;20760;-83
2023/11/26 04:27:37;;;;;;;24.73;9.13;;;8.50;99.90;;;;;;7287375;19;20185;-82
2023/11/26 04:30:04;;;;;;;20.33;8.60;;;8.40;99.90;;;;;;7287162;19;20309;-82
2023/11/26 04:32:30;;;;;;;25.67;9.50;;;8.40;99.90;;;;;;7308311;19;20183;-80
2023/11/26 04:34:56;;;;;;;18.57;8.40;;;8.60;99.90;;;;;;7294419;19;20255;-83
2023/11/26 04:37:21;;;;;;;21.63;8.17;;;8.60;99.90;;;;;;7286865;19;20185;-83
2023/11/26 04:39:48;;;;;;;21.33;8.67;;;8.60;99.90;;;;;;7288564;19;20193;-83
2023/11/26 04:42:14;;;;;;;18.53;7.80;;;8.50;99.90;;;;;;7288115;19;20195;-83
2023/11/26 04:44:39;;;;;;;23.93;8.03;;;8.50;99.90;;;;;;7286448;19;20196;-83
2023/11/26 04:47:07;;;;;;;21.30;7.57;;;8.50;99.90;;;;;;7286035;19;20207;-83
2023/11/26 04:49:33;;;;;;;20.53;7.87;;;8.60;99.90;;;;;;7286537;19;20566;-82
2023/11/26 04:51:58;;;;;;;19.43;7.60;;;8.60;99.90;;;;;;7307551;19;20177;-83
2023/11/26 04:54:26;;;;;;;19.83;7.43;;;8.70;99.90;;;;;;7284860;19;20241;-83
2023/11/26 04:56:53;;;;;;;22.23;8.30;;;8.60;99.90;;;;;;7286317;19;20185;-83
2023/11/26 04:59:19;;;;;;;20.53;6.90;;;8.60;99.90;;;;;;7285692;19;20189;-83
2023/11/26 05:01:48;;;;;;;17.37;6.43;;;8.60;99.90;;;;;;7285383;19;20192;-82
2023/11/26 05:04:15;;;;;;;18.80;6.77;;;8.50;99.90;;;;;;7285888;19;20193;-82
2023/11/26 05:06:44;;;;;;;23.40;6.90;;;8.50;99.90;;;;;;7282186;19;20212;-83
2023/11/26 05:09:11;;;;;;;18.47;6.27;;;8.50;99.90;;;;;;7284180;19;20202;-83
2023/11/26 05:11:46;;;;;;;18.37;6.93;;;8.50;99.90;;;;;;7285892;19;20194;-83
2023/11/26 05:14:12;;;;;;;18.50;6.83;;;8.50;99.90;;;;;;7285236;19;20197;-83
2023/11/26 05:16:39;;;;;;;20.23;6.40;;;8.60;99.90;;;;;;7284429;19;20522;-82
2023/11/26 05:19:05;;;;;;;16.67;6.30;;;8.60;99.90;;;;;;7284293;19;20186;-82
2023/11/26 05:21:31;;;;;;;20.60;7.00;;;8.60;99.90;;;;;;7298155;19;20174;-82
2023/11/26 05:23:57;;;;;;;19.10;6.40;;;8.60;99.90;;;;;;7300226;19;20257;-82
2023/11/26 05:26:23;;;;;;;21.27;6.87;;;8.60;99.90;;;;;;7283398;19;20213;-83
2023/11/26 05:28:49;;;;;;;19.67;7.00;;;8.60;99.90;;;;;;7284790;19;20582;-83
2023/11/26 05:31:15;;;;;;;17.57;7.40;;;8.50;99.90;;;;;;7284080;19;20261;-83
2023/11/26 05:33:41;;;;;;;19.07;7.47;;;8.60;99.90;;;;;;7285457;19;20196;-83
2023/11/26 05:36:07;;;;;;;20.60;8.33;;;8.60;99.90;;;;;;7284963;19;20199;-83
2023/11/26 05:38:33;;;;;;;19.57;8.90;;;8.60;99.90;;;;;;7284360;19;20294;-82
2023/11/26 05:40:59;;;;;;;24.07;8.50;;;8.60;99.90;;;;;;7306160;19;20185;-83
2023/11/26 05:43:26;;;;;;;27.27;9.37;;;8.60;99.90;;;;;;7284361;19;20569;-83
2023/11/26 05:45:52;;;;;;;18.47;8.43;;;8.60;99.90;;;;;;7283409;19;20194;-83
2023/11/26 05:48:18;;;;;;;22.00;9.10;;;8.70;99.90;;;;;;7285278;19;20200;-83
2023/11/26 05:50:43;;;;;;;24.80;9.83;;;8.70;99.90;;;;;;7284000;19;20217;-82
2023/11/26 05:53:11;;;;;;;31.27;10.40;;;8.70;99.90;;;;;;7284021;19;20185;-83
2023/11/26 05:55:37;;;;;;;28.13;10.73;;;8.70;99.90;;;;;;7283552;19;20668;-82
2023/11/26 05:58:03;;;;;;;25.33;10.03;;;8.80;99.90;;;;;;7284038;19;20209;-82
2023/11/26 06:00:28;;;;;;;19.50;9.90;;;8.70;99.90;;;;;;7303962;19;20193;-83
2023/11/26 06:02:55;;;;;;;23.80;10.10;;;8.70;99.90;;;;;;7284697;19;20676;-83
2023/11/26 06:05:22;;;;;;;18.30;9.53;;;8.70;99.90;;;;;;7284622;19;20189;-83
2023/11/26 06:07:48;;;;;;;25.90;10.43;;;8.60;99.90;;;;;;7287074;19;20261;-83
2023/11/26 06:10:14;;;;;;;24.07;10.37;;;8.50;99.90;;;;;;7285827;19;20713;-83
2023/11/26 06:12:40;;;;;;;22.43;10.40;;;8.40;99.90;;;;;;7282418;19;20181;-83
2023/11/26 06:15:08;;;;;;;28.00;11.13;;;8.40;99.90;;;;;;7283059;19;20665;-82
2023/11/26 06:17:33;;;;;;;22.23;11.70;;;8.50;99.90;;;;;;7282542;19;20197;-83
2023/11/26 06:19:59;;;;;;;22.77;11.83;;;8.60;99.90;;;;;;7305003;19;20201;-83
2023/11/26 06:22:25;;;;;;;29.60;11.57;;;8.50;99.90;;;;;;7283688;19;20557;-82
2023/11/26 06:24:51;;;;;;;27.67;12.83;;;8.50;99.90;;;;;;7282785;19;20202;-83
2023/11/26 06:27:16;;;;;;;26.83;13.43;;;8.60;99.90;;;;;;7282439;19;20260;-83
2023/11/26 06:29:42;;;;;;;30.40;14.77;;;8.60;99.90;;;;;;7282626;19;20194;-84
2023/11/26 06:32:09;;;;;;;33.43;14.70;;;8.50;99.90;;;;;;7283734;19;20232;-82
2023/11/26 06:34:34;;;;;;;34.13;15.73;;;8.50;99.90;;;;;;7282015;19;20188;-81
2023/11/26 06:37:00;;;;;;;36.00;15.30;;;8.50;99.90;;;;;;7306207;19;20220;-82
2023/11/26 06:39:27;;;;;;;28.73;14.73;;;8.60;99.90;;;;;;7282583;19;20230;-83
2023/11/26 06:41:54;;;;;;;32.80;14.83;;;8.50;99.90;;;;;;7282430;19;20562;-83
2023/11/26 06:44:20;;;;;;;29.70;15.23;;;8.50;99.90;;;;;;7283326;19;20189;-85
2023/11/26 06:46:47;;;;;;;36.20;14.80;;;8.50;99.90;;;;;;7283546;19;20189;-84
2023/11/26 06:49:12;;;;;;;30.90;14.43;;;8.40;99.90;;;;;;7283477;19;20193;-84
2023/11/26 06:51:39;;;;;;;33.67;14.80;;;8.40;99.90;;;;;;7283046;19;20293;-83
2023/11/26 06:54:06;;;;;;;32.23;14.80;;;8.40;99.90;;;;;;7283258;19;20177;-83
2023/11/26 06:56:31;;;;;;;34.27;14.87;;;8.40;99.90;;;;;;7290482;19;20199;-85
2023/11/26 06:58:57;;;;;;;33.37;14.13;;;8.40;99.90;;;;;;7304463;19;20653;-83
2023/11/26 07:01:24;;;;;;;34.10;15.13;;;8.30;99.90;;;;;;7281990;19;20308;-83
2023/11/26 07:03:50;;;;;;;41.07;16.00;;;8.30;99.90;;;;;;7283059;19;20664;-82
2023/11/26 07:06:16;;;;;;;32.40;14.77;;;8.40;99.90;;;;;;7283756;19;20196;-83
2023/11/26 07:08:42;;;;;;;35.97;15.10;;;8.30;99.90;;;;;;7280504;19;20180;-85
2023/11/26 07:11:28;;;;;;;38.00;15.93;;;8.40;99.90;;;;;;7281695;19;20216;-83
2023/11/26 07:13:54;;;;;;;37.43;16.53;;;8.30;99.90;;;;;;7281032;19;20181;-81
2023/11/26 07:16:21;;;;;;;38.90;16.83;;;8.30;99.90;;;;;;7280690;19;20274;-83
2023/11/26 07:18:48;;;;;;;35.80;15.87;;;8.20;99.90;;;;;;7281959;19;20629;-82
2023/11/26 07:21:17;;;;;;;36.07;15.43;;;8.30;99.90;;;;;;7279593;19;20272;-81
2023/11/26 07:23:43;;;;;;;37.07;15.87;;;8.30;99.90;;;;;;7279456;19;20598;-81
2023/11/26 07:26:12;;;;;;;35.60;14.77;;;8.30;99.90;;;;;;7279994;19;20188;-82
2023/11/26 07:28:39;;;;;;;34.43;15.23;;;8.40;99.90;;;;;;7279542;19;20669;-81
2023/11/26 07:31:16;;;;;;;33.53;14.50;;;8.30;99.90;;;;;;7278975;19;20195;-82
2023/11/26 07:33:41;;;;;;;34.03;14.63;;;8.30;99.90;;;;;;7280639;19;20192;-82
2023/11/26 07:36:14;;;;;;;34.43;13.80;;;8.40;99.90;;;;;;7283205;19;20181;-82
2023/11/26 07:38:41;;;;;;;35.10;14.13;;;8.30;99.90;;;;;;7280016;19;20185;-82
2023/11/26 07:41:08;;;;;;;36.30;15.17;;;8.40;99.90;;;;;;7277819;19;20193;-81
2023/11/26 07:43:38;;;;;;;33.20;14.73;;;8.40;99.90;;;;;;7279644;19;20249;-80
2023/11/26 07:46:04;;;;;;;34.33;14.70;;;8.50;99.90;;;;;;7278687;19;20192;-81
2023/11/26 07:48:30;;;;;;;36.47;15.30;;;8.40;99.90;;;;;;7302761;19;20586;-82
2023/11/26 07:50:55;;;;;;;34.77;14.93;;;8.30;99.90;;;;;;7280261;19;20201;-81
2023/11/26 07:53:24;;;;;;;35.37;14.63;;;8.30;99.90;;;;;;7280638;19;20713;-81
2023/11/26 07:56:00;;;;;;;33.20;14.13;;;8.40;99.90;;;;;;7279124;19;20188;-81
2023/11/26 07:58:27;;;;;;;34.70;14.77;;;8.40;99.90;;;;;;7281595;19;20539;-81
2023/11/26 08:00:54;;;;;;;34.50;14.63;;;8.30;99.90;;;;;;7278838;19;20188;-81
2023/11/26 08:03:22;;;;;;;31.90;14.50;;;8.30;99.90;;;;;;7278952;19;20249;-81
2023/11/26 08:05:48;;;;;;;35.50;14.47;;;8.30;99.90;;;;;;7279953;19;20196;-80
2023/11/26 08:08:15;;;;;;;34.00;14.70;;;8.20;99.90;;;;;;7279223;19;20193;-81
2023/11/26 08:10:43;;;;;;;36.43;15.13;;;8.20;99.90;;;;;;7279487;19;20193;-81
2023/11/26 08:13:10;;;;;;;33.17;14.43;;;8.20;99.90;;;;;;7279163;19;20189;-80
2023/11/26 08:15:36;;;;;;;32.63;15.07;;;8.20;99.90;;;;;;7280175;19;20252;-81
2023/11/26 08:18:04;;;;;;;36.23;15.23;;;8.30;99.90;;;;;;7286642;19;20253;-80
2023/11/26 08:20:30;;;;;;;33.70;15.80;;;8.40;99.90;;;;;;7299489;19;20511;-81
2023/11/26 08:22:59;;;;;;;33.17;15.20;;;8.40;99.90;;;;;;7277390;19;20201;-81
2023/11/26 08:25:28;;;;;;;32.43;15.60;;;8.30;99.90;;;;;;7277453;19;20263;-81
2023/11/26 08:27:54;;;;;;;40.93;16.57;;;8.30;99.90;;;;;;7276054;19;20193;-81
2023/11/26 08:30:32;;;;;;;38.30;17.60;;;8.30;99.90;;;;;;7278150;19;20189;-81
2023/11/26 08:33:05;;;;;;;40.60;17.57;;;8.20;99.90;;;;;;7277978;19;20648;-81
2023/11/26 08:35:32;;;;;;;36.17;17.63;;;8.30;99.90;;;;;;7274422;19;20196;-80
2023/11/26 08:38:00;;;;;;;37.50;16.87;;;8.30;99.90;;;;;;7300118;19;20197;-81
2023/11/26 08:40:26;;;;;;;42.13;17.20;;;8.20;99.90;;;;;;7278187;19;20219;-81
2023/11/26 08:42:55;;;;;;;41.97;16.73;;;8.20;99.90;;;;;;7287399;19;20186;-81
2023/11/26 08:45:22;;;;;;;33.47;16.87;;;8.30;99.90;;;;;;7288219;19;20229;-80
2023/11/26 08:47:48;;;;;;;37.57;17.23;;;8.40;99.90;;;;;;7286011;19;20224;-80
2023/11/26 08:50:14;;;;;;;36.90;15.90;;;8.40;99.90;;;;;;7288783;19;20202;-81
2023/11/26 08:52:40;;;;;;;36.73;16.67;;;8.50;99.90;;;;;;7287992;19;20195;-80
2023/11/26 08:55:06;;;;;;;36.03;16.00;;;8.50;99.90;;;;;;7288329;19;20209;-81
2023/11/26 08:57:32;;;;;;;36.10;16.93;;;8.60;99.90;;;;;;7295883;19;20248;-80
2023/11/26 08:59:58;;;;;;;33.70;16.53;;;8.60;99.90;;;;;;7308794;19;20660;-81
2023/11/26 09:02:27;;;;;;;30.73;14.70;;;8.60;99.90;;;;;;7286857;19;20240;-81
2023/11/26 09:04:53;;;;;;;37.27;16.43;;;8.70;99.90;;;;;;7288862;19;20196;-82
2023/11/26 09:07:19;;;;;;;38.03;16.97;;;8.70;99.90;;;;;;7287087;19;20190;-82
2023/11/26 09:09:45;;;;;;;34.37;16.67;;;8.80;99.90;;;;;;7287619;19;20317;-81
2023/11/26 09:12:10;;;;;;;34.57;16.60;;;8.90;99.90;;;;;;7287968;19;20203;-82
2023/11/26 09:14:36;;;;;;;38.43;18.00;;;8.80;99.90;;;;;;7285557;19;20329;-82
2023/11/26 09:17:03;;;;;;;39.80;17.23;;;8.90;99.90;;;;;;7293536;19;20195;-82
2023/11/26 09:19:29;;;;;;;39.50;16.43;;;8.80;99.90;;;;;;7307318;19;20205;-82
2023/11/26 09:21:54;;;;;;;36.57;16.20;;;8.80;99.90;;;;;;7285486;19;20189;-82
2023/11/26 09:24:20;;;;;;;36.53;16.53;;;8.80;99.90;;;;;;7287875;19;20190;-85
2023/11/26 09:26:46;;;;;;;40.50;17.37;;;9.00;99.90;;;;;;7284040;19;20185;-82
2023/11/26 09:29:12;;;;;;;36.27;15.90;;;9.00;99.90;;;;;;7287416;19;20186;-82
2023/11/26 09:31:44;;;;;;;34.50;15.47;;;9.10;99.90;;;;;;7285769;19;20189;-82
2023/11/26 09:34:10;;;;;;;36.70;16.30;;;9.10;99.90;;;;;;7287269;19;20186;-83
2023/11/26 09:36:42;;;;;;;32.70;15.73;;;9.20;99.90;;;;;;7286485;19;20550;-82
2023/11/26 09:39:11;;;;;;;34.20;15.70;;;9.20;99.90;;;;;;7288118;19;20220;-82
2023/11/26 09:41:36;;;;;;;33.73;15.17;;;9.30;99.90;;;;;;7284430;19;20511;-82
2023/11/26 09:44:05;;;;;;;33.80;15.40;;;9.40;99.90;;;;;;7289260;19;20623;-82
2023/11/26 09:46:33;;;;;;;30.93;15.27;;;9.60;99.90;;;;;;7305242;19;20194;-80
2023/11/26 09:48:59;;;;;;;33.53;15.30;;;9.70;99.90;;;;;;7305407;19;20634;-82
2023/11/26 09:51:25;;;;;;;29.77;14.30;;;9.80;99.90;;;;;;7283884;19;20197;-82
2023/11/26 09:53:52;;;;;;;38.43;16.57;;;9.80;99.90;;;;;;7281815;19;21307;-81
2023/11/26 09:56:18;;;;;;;29.23;15.00;;;9.80;99.90;;;;;;7283727;19;20183;-83
2023/11/26 09:58:43;;;;;;;29.93;13.03;;;9.80;99.90;;;;;;7283112;19;20646;-82
2023/11/26 10:01:13;;;;;;;28.83;13.93;;;9.70;99.90;;;;;;7280885;19;20181;-81
2023/11/26 10:03:56;;;;;;;33.97;13.30;;;9.60;99.90;;;;;;7282098;19;20183;-82
2023/11/26 10:06:22;;;;;;;32.60;13.07;;;9.70;99.90;;;;;;7283526;19;20230;-82
2023/11/26 10:08:47;;;;;;;27.63;13.07;;;9.80;99.90;;;;;;7282976;19;20183;-83
2023/11/26 10:11:23;;;;;;;29.07;12.40;;;9.80;99.90;;;;;;7282612;19;20191;-82
2023/11/26 10:13:49;;;;;;;27.53;12.00;;;9.80;99.90;;;;;;7282677;19;20190;-82
2023/11/26 10:16:34;;;;;;;26.70;12.40;;;9.90;99.90;;;;;;7283017;19;20196;-82
2023/11/26 10:19:03;;;;;;;30.23;11.93;;;9.90;99.90;;;;;;7281854;19;20690;-82
2023/11/26 10:21:31;;;;;;;28.83;11.77;;;10.00;99.90;;;;;;7282175;19;20669;-83
2023/11/26 10:24:00;;;;;;;27.47;11.87;;;10.10;99.90;;;;;;7284209;19;20590;-82
2023/11/26 10:26:26;;;;;;;27.97;11.93;;;10.00;99.90;;;;;;7281346;19;20186;-82
2023/11/26 10:29:07;;;;;;;26.53;12.87;;;10.00;99.90;;;;;;7282360;19;20183;-82
2023/11/26 10:31:32;;;;;;;27.73;11.30;;;10.00;99.90;;;;;;7265601;19;20189;-82
2023/11/26 10:34:16;;;;;;;28.50;12.43;;;10.10;99.90;;;;;;7303796;19;20205;-82
2023/11/26 10:36:42;;;;;;;27.33;10.93;;;10.20;99.90;;;;;;7178986;19;2004577;-82
2023/11/26 10:39:11;;;;;;;27.73;12.13;;;10.30;99.90;;;;;;7282933;19;20265;-82
2023/11/26 10:41:38;;;;;;;27.00;12.40;;;10.20;99.90;;;;;;7281404;19;20287;-81
2023/11/26 10:44:05;;;;;;;26.87;13.20;;;10.20;99.90;;;;;;7281892;19;20206;-81
2023/11/26 10:46:34;;;;;;;36.77;14.70;;;10.20;99.90;;;;;;7300933;19;20212;-81
2023/11/26 10:49:19;;;;;;;32.33;13.83;;;10.30;99.90;;;;;;7304854;19;20249;-82
2023/11/26 10:52:07;;;;;;;28.67;11.77;;;10.30;99.90;;;;;;7181561;19;2004589;-82
2023/11/26 10:54:44;;;;;;;26.80;11.40;;;10.30;99.90;;;;;;7263497;19;20204;-82
2023/11/26 10:57:13;;;;;;;31.80;12.10;;;10.20;99.90;;;;;;7281482;19;20209;-82
2023/11/26 10:59:45;;;;;;;24.87;10.30;;;10.20;99.90;;;;;;7281149;19;20641;-82
2023/11/26 11:02:16;;;;;;;22.63;10.13;;;10.00;99.90;;;;;;7282107;19;20298;-82
2023/11/26 11:04:46;;;;;;;22.90;9.73;;;10.00;99.90;;;;;;7281025;19;20198;-83
2023/11/26 11:07:13;;;;;;;24.53;10.27;;;10.00;99.90;;;;;;7284130;19;20198;-83
2023/11/26 11:10:15;;;;;;;25.30;9.80;;;10.00;99.90;;;;;;7286753;19;20190;-82
2023/11/26 11:12:51;;;;;;;22.40;9.03;;;10.00;99.90;;;;;;7184937;19;2004578;-82
2023/11/26 11:15:20;;;;;;;31.13;9.60;;;10.00;99.90;;;;;;7284292;19;20632;-84
2023/11/26 11:17:46;;;;;;;26.57;9.30;;;10.00;99.90;;;;;;7284707;19;20186;-84
2023/11/26 11:20:12;;;;;;;23.20;10.53;;;10.10;99.90;;;;;;7282949;19;20235;-83
2023/11/26 11:22:42;;;;;;;24.00;9.53;;;10.10;99.90;;;;;;7282847;19;20187;-81
2023/11/26 11:25:09;;;;;;;30.37;10.20;;;10.10;99.90;;;;;;7282448;19;20286;-84
2023/11/26 11:27:54;;;;;;;30.87;10.00;;;10.10;99.90;;;;;;7280399;19;20275;-82
2023/11/26 11:30:32;;;;;;;21.90;9.37;;;10.10;99.90;;;;;;7283772;19;20206;-83
2023/11/26 11:33:05;;;;;;;24.63;8.97;;;10.10;99.90;;;;;;7281703;19;20539;-84
2023/11/26 11:35:41;;;;;;;19.73;9.73;;;10.10;99.90;;;;;;7283973;19;20181;-84
2023/11/26 11:38:12;;;;;;;29.27;10.33;;;10.20;99.90;;;;;;7178587;19;2004685;-84
2023/11/26 11:41:13;;;;;;;29.60;9.40;;;10.20;99.90;;;;;;7281203;19;20561;-84
2023/11/26 11:43:40;;;;;;;27.40;9.37;;;10.30;99.90;;;;;;7179216;19;2005110;-84
2023/11/26 11:46:25;;;;;;;20.23;8.07;;;10.40;99.90;;;;;;7283625;19;20273;-82
2023/11/26 11:49:00;;;;;;;27.27;8.97;;;10.30;99.90;;;;;;7288581;19;20200;-84
2023/11/26 11:51:38;;;;;;;22.13;8.13;;;10.30;99.90;;;;;;7287116;19;20249;-84
2023/11/26 11:54:09;;;;;;;25.50;9.13;;;10.40;99.90;;;;;;7263544;19;20194;-84
2023/11/26 11:56:47;;;;;;;26.03;8.43;;;10.30;99.90;;;;;;7280267;19;20198;-84
2023/11/26 11:59:13;;;;;;;22.63;8.33;;;10.40;99.90;;;;;;7280541;19;20195;-84
2023/11/26 12:01:39;;;;;;;30.77;8.63;;;10.50;99.90;;;;;;7280183;19;20693;-83
2023/11/26 12:04:06;;;;;;;20.50;8.33;;;10.50;99.90;;;;;;7283931;19;20191;-85
2023/11/26 12:06:33;;;;;;;26.80;8.23;;;10.50;99.90;;;;;;7294679;19;20214;-85
2023/11/26 12:09:11;;;;;;;20.90;7.80;;;10.60;99.90;;;;;;7303382;19;20230;-85
2023/11/26 12:11:49;;;;;;;23.10;8.30;;;10.70;99.90;;;;;;7170826;19;2004940;-85
2023/11/26 12:14:27;;;;;;;19.50;8.27;;;10.60;99.90;;;;;;7282837;19;20198;-84
2023/11/26 12:16:53;;;;;;;27.67;8.93;;;10.60;99.90;;;;;;7288586;19;20187;-82
2023/11/26 12:19:19;;;;;;;24.27;8.37;;;10.70;99.90;;;;;;7289216;19;20193;-86
2023/11/26 12:21:47;;;;;;;25.53;8.80;;;10.70;99.90;;;;;;7290260;19;20195;-86
2023/11/26 12:24:23;;;;;;;29.13;8.90;;;10.80;99.90;;;;;;7290951;19;20196;-83
2023/11/26 12:26:49;;;;;;;24.07;9.03;;;10.80;99.90;;;;;;7287838;19;20253;-85
2023/11/26 12:29:35;;;;;;;28.33;9.93;;;10.80;99.90;;;;;;7288369;19;20261;-81
2023/11/26 12:32:08;;;;;;;27.17;9.33;;;10.80;99.90;;;;;;7290632;19;20215;-82
2023/11/26 12:34:40;;;;;;;27.50;8.93;;;10.70;99.90;;;;;;7266764;19;20707;-84
2023/11/26 12:37:11;;;;;;;23.23;8.30;;;10.70;99.90;;;;;;7289175;19;20219;-84
2023/11/26 12:39:41;;;;;;;29.17;8.93;;;10.80;99.90;;;;;;7290275;19;20215;-83
2023/11/26 12:42:08;;;;;;;27.40;7.57;;;10.80;99.90;;;;;;7288713;19;20195;-86
2023/11/26 12:44:34;;;;;;;23.20;6.87;;;10.80;99.90;;;;;;7287153;19;20666;-80